sensor_id;sensor_type;location;lat;lon;timestamp;P1;durP1;ratioP1;P2;durP2;ratioP2
23800;SDS011;12081;48.614;10.226;2023-03-31T00:01:43;9.53;;;4.93;;
23800;SDS011;12081;48.614;10.226;2023-03-31T00:04:27;11.40;;;5.37;;
23800;SDS011;12081;48.614;10.226;2023-03-31T00:07:14;7.80;;;4.80;;
23800;SDS011;12081;48.614;10.226;2023-03-31T00:09:58;10.73;;;5.70;;
23800;SDS011;12081;48.614;10.226;2023-03-31T00:12:44;8.13;;;4.53;;
23800;SDS011;12081;48.614;10.226;2023-03-31T00:15:34;9.93;;;5.27;;
23800;SDS011;12081;48.614;10.226;2023-03-31T00:18:19;7.43;;;4.97;;
23800;SDS011;12081;48.614;10.226;2023-03-31T00:21:07;8.40;;;4.47;;
23800;SDS011;12081;48.614;10.226;2023-03-31T00:23:57;9.47;;;4.20;;
23800;SDS011;12081;48.614;10.226;2023-03-31T00:26:43;9.47;;;5.10;;
23800;SDS011;12081;48.614;10.226;2023-03-31T00:29:27;9.30;;;5.67;;
23800;SDS011;12081;48.614;10.226;2023-03-31T00:32:12;14.00;;;6.97;;
23800;SDS011;12081;48.614;10.226;2023-03-31T00:34:57;13.47;;;8.60;;
23800;SDS011;12081;48.614;10.226;2023-03-31T00:37:41;15.07;;;8.77;;
23800;SDS011;12081;48.614;10.226;2023-03-31T00:40:25;14.60;;;8.43;;
23800;SDS011;12081;48.614;10.226;2023-03-31T00:43:14;11.57;;;7.53;;
23800;SDS011;12081;48.614;10.226;2023-03-31T00:46:16;13.30;;;7.10;;
23800;SDS011;12081;48.614;10.226;2023-03-31T00:49:04;12.60;;;6.97;;
23800;SDS011;12081;48.614;10.226;2023-03-31T00:52:20;11.43;;;6.77;;
23800;SDS011;12081;48.614;10.226;2023-03-31T00:55:15;10.87;;;6.17;;
23800;SDS011;12081;48.614;10.226;2023-03-31T00:58:04;9.70;;;6.07;;
23800;SDS011;12081;48.614;10.226;2023-03-31T01:00:51;11.20;;;5.17;;
23800;SDS011;12081;48.614;10.226;2023-03-31T01:03:36;10.20;;;4.93;;
23800;SDS011;12081;48.614;10.226;2023-03-31T01:06:22;9.07;;;3.97;;
23800;SDS011;12081;48.614;10.226;2023-03-31T01:09:07;10.37;;;3.93;;
23800;SDS011;12081;48.614;10.226;2023-03-31T01:11:52;5.57;;;3.53;;
23800;SDS011;12081;48.614;10.226;2023-03-31T01:14:37;6.33;;;3.37;;
23800;SDS011;12081;48.614;10.226;2023-03-31T01:17:21;6.40;;;3.20;;
23800;SDS011;12081;48.614;10.226;2023-03-31T01:26:10;5.27;;;3.03;;
23800;SDS011;12081;48.614;10.226;2023-03-31T01:35:46;7.43;;;3.53;;
23800;SDS011;12081;48.614;10.226;2023-03-31T01:48:03;3.97;;;3.07;;
23800;SDS011;12081;48.614;10.226;2023-03-31T01:50:56;8.27;;;3.30;;
23800;SDS011;12081;48.614;10.226;2023-03-31T01:53:59;6.77;;;3.10;;
23800;SDS011;12081;48.614;10.226;2023-03-31T01:57:00;8.80;;;3.50;;
23800;SDS011;12081;48.614;10.226;2023-03-31T02:00:00;7.10;;;3.57;;
23800;SDS011;12081;48.614;10.226;2023-03-31T02:02:49;7.53;;;3.40;;
23800;SDS011;12081;48.614;10.226;2023-03-31T02:05:46;8.73;;;3.27;;
23800;SDS011;12081;48.614;10.226;2023-03-31T02:08:46;10.03;;;3.87;;
23800;SDS011;12081;48.614;10.226;2023-03-31T02:11:35;6.30;;;3.13;;
23800;SDS011;12081;48.614;10.226;2023-03-31T02:14:23;8.37;;;3.47;;
23800;SDS011;12081;48.614;10.226;2023-03-31T02:17:14;6.20;;;3.30;;
23800;SDS011;12081;48.614;10.226;2023-03-31T02:20:03;7.77;;;3.50;;
23800;SDS011;12081;48.614;10.226;2023-03-31T02:22:55;6.03;;;3.23;;
23800;SDS011;12081;48.614;10.226;2023-03-31T02:25:41;11.00;;;3.73;;
23800;SDS011;12081;48.614;10.226;2023-03-31T02:28:37;5.90;;;3.37;;
23800;SDS011;12081;48.614;10.226;2023-03-31T02:31:24;7.10;;;3.20;;
23800;SDS011;12081;48.614;10.226;2023-03-31T02:34:23;9.00;;;3.47;;
23800;SDS011;12081;48.614;10.226;2023-03-31T02:37:08;4.93;;;2.93;;
23800;SDS011;12081;48.614;10.226;2023-03-31T02:39:54;8.07;;;3.30;;
23800;SDS011;12081;48.614;10.226;2023-03-31T02:42:41;10.93;;;3.30;;
23800;SDS011;12081;48.614;10.226;2023-03-31T02:48:30;7.87;;;3.90;;
23800;SDS011;12081;48.614;10.226;2023-03-31T02:51:38;5.83;;;3.20;;
23800;SDS011;12081;48.614;10.226;2023-03-31T02:58:02;3.57;;;2.60;;
23800;SDS011;12081;48.614;10.226;2023-03-31T03:01:09;7.00;;;3.07;;
23800;SDS011;12081;48.614;10.226;2023-03-31T03:07:04;8.73;;;2.90;;
23800;SDS011;12081;48.614;10.226;2023-03-31T03:15:44;9.73;;;3.80;;
23800;SDS011;12081;48.614;10.226;2023-03-31T03:18:54;7.87;;;3.37;;
23800;SDS011;12081;48.614;10.226;2023-03-31T03:21:39;7.60;;;3.83;;
23800;SDS011;12081;48.614;10.226;2023-03-31T03:24:23;6.57;;;4.10;;
23800;SDS011;12081;48.614;10.226;2023-03-31T03:27:11;9.97;;;4.33;;
23800;SDS011;12081;48.614;10.226;2023-03-31T03:29:57;10.70;;;4.27;;
23800;SDS011;12081;48.614;10.226;2023-03-31T03:33:00;7.97;;;4.60;;
23800;SDS011;12081;48.614;10.226;2023-03-31T03:35:44;9.67;;;4.03;;
23800;SDS011;12081;48.614;10.226;2023-03-31T03:38:28;10.47;;;4.40;;
23800;SDS011;12081;48.614;10.226;2023-03-31T03:41:12;10.77;;;4.50;;
23800;SDS011;12081;48.614;10.226;2023-03-31T03:43:56;8.23;;;4.90;;
23800;SDS011;12081;48.614;10.226;2023-03-31T03:46:40;9.87;;;5.60;;
23800;SDS011;12081;48.614;10.226;2023-03-31T03:49:24;8.30;;;5.07;;
23800;SDS011;12081;48.614;10.226;2023-03-31T03:52:08;10.07;;;5.73;;
23800;SDS011;12081;48.614;10.226;2023-03-31T03:54:52;11.40;;;5.67;;
23800;SDS011;12081;48.614;10.226;2023-03-31T03:57:36;12.00;;;6.50;;
23800;SDS011;12081;48.614;10.226;2023-03-31T04:00:20;14.33;;;7.50;;
23800;SDS011;12081;48.614;10.226;2023-03-31T04:03:05;8.90;;;7.20;;
23800;SDS011;12081;48.614;10.226;2023-03-31T04:05:49;10.60;;;7.57;;
23800;SDS011;12081;48.614;10.226;2023-03-31T04:08:33;15.23;;;8.50;;
23800;SDS011;12081;48.614;10.226;2023-03-31T04:11:18;10.73;;;7.17;;
23800;SDS011;12081;48.614;10.226;2023-03-31T04:14:02;11.67;;;6.97;;
23800;SDS011;12081;48.614;10.226;2023-03-31T04:16:47;11.50;;;7.43;;
23800;SDS011;12081;48.614;10.226;2023-03-31T04:19:31;11.27;;;7.70;;
23800;SDS011;12081;48.614;10.226;2023-03-31T04:22:15;11.77;;;6.40;;
23800;SDS011;12081;48.614;10.226;2023-03-31T04:25:03;12.13;;;7.20;;
23800;SDS011;12081;48.614;10.226;2023-03-31T04:27:57;11.07;;;6.70;;
23800;SDS011;12081;48.614;10.226;2023-03-31T04:30:41;14.03;;;6.90;;
23800;SDS011;12081;48.614;10.226;2023-03-31T04:33:26;14.27;;;6.47;;
23800;SDS011;12081;48.614;10.226;2023-03-31T04:36:11;11.20;;;6.60;;
23800;SDS011;12081;48.614;10.226;2023-03-31T04:39:01;8.90;;;6.17;;
23800;SDS011;12081;48.614;10.226;2023-03-31T04:41:46;11.80;;;6.77;;
23800;SDS011;12081;48.614;10.226;2023-03-31T04:44:30;9.67;;;6.43;;
23800;SDS011;12081;48.614;10.226;2023-03-31T04:47:14;13.93;;;6.67;;
23800;SDS011;12081;48.614;10.226;2023-03-31T04:49:58;13.27;;;6.20;;
23800;SDS011;12081;48.614;10.226;2023-03-31T04:52:42;13.10;;;6.77;;
23800;SDS011;12081;48.614;10.226;2023-03-31T04:55:27;17.13;;;8.57;;
23800;SDS011;12081;48.614;10.226;2023-03-31T04:58:11;13.77;;;7.43;;
23800;SDS011;12081;48.614;10.226;2023-03-31T05:00:55;11.67;;;6.73;;
23800;SDS011;12081;48.614;10.226;2023-03-31T05:03:39;9.33;;;5.87;;
23800;SDS011;12081;48.614;10.226;2023-03-31T05:06:23;13.10;;;7.83;;
23800;SDS011;12081;48.614;10.226;2023-03-31T05:09:08;15.37;;;6.90;;
23800;SDS011;12081;48.614;10.226;2023-03-31T05:11:52;11.83;;;7.43;;
23800;SDS011;12081;48.614;10.226;2023-03-31T05:14:36;13.77;;;6.60;;
23800;SDS011;12081;48.614;10.226;2023-03-31T05:17:20;14.23;;;7.37;;
23800;SDS011;12081;48.614;10.226;2023-03-31T05:20:05;13.20;;;7.03;;
23800;SDS011;12081;48.614;10.226;2023-03-31T05:22:50;10.97;;;6.77;;
23800;SDS011;12081;48.614;10.226;2023-03-31T05:25:35;9.83;;;5.83;;
23800;SDS011;12081;48.614;10.226;2023-03-31T05:28:19;11.63;;;6.47;;
23800;SDS011;12081;48.614;10.226;2023-03-31T05:31:05;15.80;;;7.50;;
23800;SDS011;12081;48.614;10.226;2023-03-31T05:33:51;12.37;;;6.83;;
23800;SDS011;12081;48.614;10.226;2023-03-31T05:36:35;12.33;;;7.27;;
23800;SDS011;12081;48.614;10.226;2023-03-31T05:39:19;10.57;;;6.40;;
23800;SDS011;12081;48.614;10.226;2023-03-31T05:42:04;16.47;;;7.40;;
23800;SDS011;12081;48.614;10.226;2023-03-31T05:44:49;13.00;;;6.67;;
23800;SDS011;12081;48.614;10.226;2023-03-31T05:47:33;12.43;;;6.80;;
23800;SDS011;12081;48.614;10.226;2023-03-31T05:50:17;15.00;;;7.33;;
23800;SDS011;12081;48.614;10.226;2023-03-31T05:53:01;11.00;;;6.70;;
23800;SDS011;12081;48.614;10.226;2023-03-31T05:55:46;20.47;;;14.23;;
23800;SDS011;12081;48.614;10.226;2023-03-31T05:58:30;37.80;;;23.90;;
23800;SDS011;12081;48.614;10.226;2023-03-31T06:01:16;13.53;;;12.00;;
23800;SDS011;12081;48.614;10.226;2023-03-31T06:04:04;15.23;;;8.40;;
23800;SDS011;12081;48.614;10.226;2023-03-31T06:06:48;13.40;;;6.37;;
23800;SDS011;12081;48.614;10.226;2023-03-31T06:09:32;12.50;;;6.87;;
23800;SDS011;12081;48.614;10.226;2023-03-31T06:12:16;15.20;;;8.47;;
23800;SDS011;12081;48.614;10.226;2023-03-31T06:15:01;17.07;;;7.30;;
23800;SDS011;12081;48.614;10.226;2023-03-31T06:17:46;9.40;;;6.13;;
23800;SDS011;12081;48.614;10.226;2023-03-31T06:20:30;16.00;;;7.50;;
23800;SDS011;12081;48.614;10.226;2023-03-31T06:23:14;13.33;;;8.07;;
23800;SDS011;12081;48.614;10.226;2023-03-31T06:26:02;9.13;;;6.70;;
23800;SDS011;12081;48.614;10.226;2023-03-31T06:28:49;10.57;;;7.00;;
23800;SDS011;12081;48.614;10.226;2023-03-31T06:31:33;12.73;;;7.00;;
23800;SDS011;12081;48.614;10.226;2023-03-31T06:34:17;12.10;;;6.43;;
23800;SDS011;12081;48.614;10.226;2023-03-31T06:37:01;13.10;;;7.70;;
23800;SDS011;12081;48.614;10.226;2023-03-31T06:39:45;14.87;;;10.73;;
23800;SDS011;12081;48.614;10.226;2023-03-31T06:42:29;35.17;;;25.27;;
23800;SDS011;12081;48.614;10.226;2023-03-31T06:45:13;12.53;;;8.30;;
23800;SDS011;12081;48.614;10.226;2023-03-31T06:47:58;9.03;;;6.73;;
23800;SDS011;12081;48.614;10.226;2023-03-31T06:50:42;13.07;;;7.37;;
23800;SDS011;12081;48.614;10.226;2023-03-31T06:53:26;11.30;;;8.07;;
23800;SDS011;12081;48.614;10.226;2023-03-31T06:56:11;15.47;;;7.90;;
23800;SDS011;12081;48.614;10.226;2023-03-31T06:58:55;13.30;;;7.60;;
23800;SDS011;12081;48.614;10.226;2023-03-31T07:01:39;8.60;;;6.67;;
23800;SDS011;12081;48.614;10.226;2023-03-31T07:04:25;15.57;;;7.00;;
23800;SDS011;12081;48.614;10.226;2023-03-31T07:07:09;11.73;;;7.53;;
23800;SDS011;12081;48.614;10.226;2023-03-31T07:09:53;12.63;;;7.37;;
23800;SDS011;12081;48.614;10.226;2023-03-31T07:12:37;13.63;;;7.47;;
23800;SDS011;12081;48.614;10.226;2023-03-31T07:15:21;11.80;;;7.37;;
23800;SDS011;12081;48.614;10.226;2023-03-31T07:18:07;13.60;;;7.53;;
23800;SDS011;12081;48.614;10.226;2023-03-31T07:20:52;20.87;;;9.43;;
23800;SDS011;12081;48.614;10.226;2023-03-31T07:23:36;13.40;;;8.30;;
23800;SDS011;12081;48.614;10.226;2023-03-31T07:26:20;11.20;;;7.67;;
23800;SDS011;12081;48.614;10.226;2023-03-31T07:29:05;14.60;;;8.23;;
23800;SDS011;12081;48.614;10.226;2023-03-31T07:31:49;12.10;;;8.23;;
23800;SDS011;12081;48.614;10.226;2023-03-31T07:34:33;13.20;;;9.00;;
23800;SDS011;12081;48.614;10.226;2023-03-31T07:37:18;14.37;;;7.80;;
23800;SDS011;12081;48.614;10.226;2023-03-31T07:40:03;89.17;;;17.70;;
23800;SDS011;12081;48.614;10.226;2023-03-31T07:42:49;90.03;;;26.03;;
23800;SDS011;12081;48.614;10.226;2023-03-31T07:45:34;21.60;;;11.17;;
23800;SDS011;12081;48.614;10.226;2023-03-31T07:48:18;12.77;;;8.63;;
23800;SDS011;12081;48.614;10.226;2023-03-31T07:51:02;12.33;;;8.50;;
23800;SDS011;12081;48.614;10.226;2023-03-31T07:53:47;6.43;;;5.40;;
23800;SDS011;12081;48.614;10.226;2023-03-31T07:56:34;5.33;;;3.90;;
23800;SDS011;12081;48.614;10.226;2023-03-31T07:59:18;7.43;;;3.67;;
23800;SDS011;12081;48.614;10.226;2023-03-31T08:02:03;6.97;;;3.83;;
23800;SDS011;12081;48.614;10.226;2023-03-31T08:04:47;3.40;;;2.17;;
23800;SDS011;12081;48.614;10.226;2023-03-31T08:07:32;5.60;;;2.40;;
23800;SDS011;12081;48.614;10.226;2023-03-31T08:10:19;3.87;;;1.97;;
23800;SDS011;12081;48.614;10.226;2023-03-31T08:13:06;2.80;;;1.70;;
23800;SDS011;12081;48.614;10.226;2023-03-31T08:15:50;3.73;;;2.07;;
23800;SDS011;12081;48.614;10.226;2023-03-31T08:18:34;3.03;;;1.70;;
23800;SDS011;12081;48.614;10.226;2023-03-31T08:21:18;2.83;;;1.87;;
23800;SDS011;12081;48.614;10.226;2023-03-31T08:24:02;2.20;;;1.33;;
23800;SDS011;12081;48.614;10.226;2023-03-31T08:26:45;2.90;;;1.07;;
23800;SDS011;12081;48.614;10.226;2023-03-31T08:29:30;1.97;;;1.00;;
23800;SDS011;12081;48.614;10.226;2023-03-31T08:32:14;2.47;;;1.00;;
23800;SDS011;12081;48.614;10.226;2023-03-31T08:34:58;1.47;;;0.93;;
23800;SDS011;12081;48.614;10.226;2023-03-31T08:37:43;1.30;;;1.00;;
23800;SDS011;12081;48.614;10.226;2023-03-31T08:40:27;2.90;;;0.90;;
23800;SDS011;12081;48.614;10.226;2023-03-31T08:43:15;1.90;;;1.43;;
23800;SDS011;12081;48.614;10.226;2023-03-31T08:46:09;2.47;;;0.77;;
23800;SDS011;12081;48.614;10.226;2023-03-31T08:48:56;0.77;;;0.60;;
23800;SDS011;12081;48.614;10.226;2023-03-31T08:51:53;2.93;;;0.90;;
23800;SDS011;12081;48.614;10.226;2023-03-31T08:54:45;1.13;;;0.70;;
23800;SDS011;12081;48.614;10.226;2023-03-31T08:57:54;1.40;;;0.70;;
23800;SDS011;12081;48.614;10.226;2023-03-31T09:01:08;14.77;;;9.83;;
23800;SDS011;12081;48.614;10.226;2023-03-31T09:11:09;1.67;;;0.67;;
23800;SDS011;12081;48.614;10.226;2023-03-31T09:19:59;0.73;;;0.47;;
23800;SDS011;12081;48.614;10.226;2023-03-31T09:22:52;0.80;;;0.40;;
23800;SDS011;12081;48.614;10.226;2023-03-31T09:25:43;2.27;;;0.60;;
23800;SDS011;12081;48.614;10.226;2023-03-31T09:28:38;3.63;;;0.50;;
23800;SDS011;12081;48.614;10.226;2023-03-31T09:31:23;1.67;;;1.00;;
23800;SDS011;12081;48.614;10.226;2023-03-31T09:34:15;2.23;;;0.90;;
23800;SDS011;12081;48.614;10.226;2023-03-31T09:37:08;2.00;;;0.60;;
23800;SDS011;12081;48.614;10.226;2023-03-31T09:39:54;0.70;;;0.40;;
23800;SDS011;12081;48.614;10.226;2023-03-31T09:42:39;0.60;;;0.40;;
23800;SDS011;12081;48.614;10.226;2023-03-31T09:45:23;1.83;;;0.43;;
23800;SDS011;12081;48.614;10.226;2023-03-31T09:48:12;1.87;;;0.70;;
23800;SDS011;12081;48.614;10.226;2023-03-31T09:51:00;1.33;;;0.60;;
23800;SDS011;12081;48.614;10.226;2023-03-31T09:53:48;1.50;;;0.47;;
23800;SDS011;12081;48.614;10.226;2023-03-31T09:56:57;2.37;;;0.50;;
23800;SDS011;12081;48.614;10.226;2023-03-31T09:59:41;1.50;;;0.60;;
23800;SDS011;12081;48.614;10.226;2023-03-31T10:02:34;2.13;;;0.70;;
23800;SDS011;12081;48.614;10.226;2023-03-31T10:05:30;2.37;;;0.87;;
23800;SDS011;12081;48.614;10.226;2023-03-31T10:08:25;1.77;;;0.50;;
23800;SDS011;12081;48.614;10.226;2023-03-31T10:11:12;0.73;;;0.40;;
23800;SDS011;12081;48.614;10.226;2023-03-31T10:14:01;1.70;;;0.60;;
23800;SDS011;12081;48.614;10.226;2023-03-31T10:16:49;1.90;;;0.40;;
23800;SDS011;12081;48.614;10.226;2023-03-31T10:19:36;1.80;;;0.60;;
23800;SDS011;12081;48.614;10.226;2023-03-31T10:25:12;2.40;;;0.70;;
23800;SDS011;12081;48.614;10.226;2023-03-31T10:28:09;0.90;;;0.40;;
23800;SDS011;12081;48.614;10.226;2023-03-31T10:30:56;1.20;;;0.60;;
23800;SDS011;12081;48.614;10.226;2023-03-31T10:33:48;4.33;;;0.90;;
23800;SDS011;12081;48.614;10.226;2023-03-31T10:36:33;2.70;;;0.80;;
23800;SDS011;12081;48.614;10.226;2023-03-31T10:39:18;5.43;;;1.60;;
23800;SDS011;12081;48.614;10.226;2023-03-31T10:42:03;5.63;;;1.23;;
23800;SDS011;12081;48.614;10.226;2023-03-31T10:44:47;1.80;;;0.63;;
23800;SDS011;12081;48.614;10.226;2023-03-31T10:47:31;2.27;;;0.50;;
23800;SDS011;12081;48.614;10.226;2023-03-31T10:50:16;1.83;;;0.53;;
23800;SDS011;12081;48.614;10.226;2023-03-31T10:53:04;2.97;;;0.70;;
23800;SDS011;12081;48.614;10.226;2023-03-31T10:56:05;2.33;;;0.80;;
23800;SDS011;12081;48.614;10.226;2023-03-31T10:58:59;2.30;;;0.70;;
23800;SDS011;12081;48.614;10.226;2023-03-31T11:05:14;3.07;;;0.93;;
23800;SDS011;12081;48.614;10.226;2023-03-31T11:08:27;3.97;;;0.70;;
23800;SDS011;12081;48.614;10.226;2023-03-31T11:11:26;4.03;;;0.77;;
23800;SDS011;12081;48.614;10.226;2023-03-31T11:18:00;3.63;;;0.70;;
23800;SDS011;12081;48.614;10.226;2023-03-31T11:24:26;4.87;;;0.80;;
23800;SDS011;12081;48.614;10.226;2023-03-31T11:34:04;5.97;;;1.20;;
23800;SDS011;12081;48.614;10.226;2023-03-31T11:42:58;2.73;;;0.93;;
23800;SDS011;12081;48.614;10.226;2023-03-31T11:45:51;3.40;;;0.93;;
23800;SDS011;12081;48.614;10.226;2023-03-31T11:48:43;4.63;;;0.93;;
23800;SDS011;12081;48.614;10.226;2023-03-31T11:54:45;4.90;;;0.90;;
23800;SDS011;12081;48.614;10.226;2023-03-31T11:57:40;4.27;;;0.93;;
23800;SDS011;12081;48.614;10.226;2023-03-31T12:00:32;4.00;;;1.33;;
23800;SDS011;12081;48.614;10.226;2023-03-31T12:03:29;3.57;;;0.87;;
23800;SDS011;12081;48.614;10.226;2023-03-31T12:06:22;2.40;;;0.90;;
23800;SDS011;12081;48.614;10.226;2023-03-31T12:12:08;10.23;;;1.43;;
23800;SDS011;12081;48.614;10.226;2023-03-31T12:15:20;4.43;;;0.73;;
23800;SDS011;12081;48.614;10.226;2023-03-31T12:18:21;3.27;;;0.40;;
23800;SDS011;12081;48.614;10.226;2023-03-31T12:21:08;2.70;;;0.60;;
23800;SDS011;12081;48.614;10.226;2023-03-31T12:23:53;1.73;;;0.30;;
23800;SDS011;12081;48.614;10.226;2023-03-31T12:29:53;0.77;;;0.20;;
23800;SDS011;12081;48.614;10.226;2023-03-31T12:32:48;1.33;;;0.20;;
23800;SDS011;12081;48.614;10.226;2023-03-31T12:35:51;0.60;;;0.30;;
23800;SDS011;12081;48.614;10.226;2023-03-31T12:39:09;0.60;;;0.27;;
23800;SDS011;12081;48.614;10.226;2023-03-31T12:42:32;0.67;;;0.17;;
23800;SDS011;12081;48.614;10.226;2023-03-31T12:51:48;0.73;;;0.17;;
23800;SDS011;12081;48.614;10.226;2023-03-31T12:55:03;0.30;;;0.10;;
23800;SDS011;12081;48.614;10.226;2023-03-31T13:04:20;0.83;;;0.30;;
23800;SDS011;12081;48.614;10.226;2023-03-31T13:07:53;0.30;;;0.13;;
23800;SDS011;12081;48.614;10.226;2023-03-31T13:10:26;0.93;;;0.20;;
23800;SDS011;12081;48.614;10.226;2023-03-31T13:13:12;0.60;;;0.17;;
23800;SDS011;12081;48.614;10.226;2023-03-31T13:15:59;0.60;;;0.20;;
23800;SDS011;12081;48.614;10.226;2023-03-31T13:18:49;1.10;;;0.30;;
23800;SDS011;12081;48.614;10.226;2023-03-31T13:21:50;1.00;;;0.20;;
23800;SDS011;12081;48.614;10.226;2023-03-31T13:24:36;1.63;;;0.40;;
23800;SDS011;12081;48.614;10.226;2023-03-31T13:33:23;1.87;;;0.47;;
23800;SDS011;12081;48.614;10.226;2023-03-31T13:36:18;1.80;;;0.57;;
23800;SDS011;12081;48.614;10.226;2023-03-31T13:42:45;2.13;;;0.70;;
23800;SDS011;12081;48.614;10.226;2023-03-31T13:45:47;3.83;;;1.00;;
23800;SDS011;12081;48.614;10.226;2023-03-31T13:52:03;3.57;;;1.17;;
23800;SDS011;12081;48.614;10.226;2023-03-31T14:07:37;5.10;;;2.50;;
23800;SDS011;12081;48.614;10.226;2023-03-31T14:10:29;2.30;;;0.90;;
23800;SDS011;12081;48.614;10.226;2023-03-31T14:13:15;4.50;;;1.87;;
23800;SDS011;12081;48.614;10.226;2023-03-31T14:16:07;4.87;;;1.63;;
23800;SDS011;12081;48.614;10.226;2023-03-31T14:18:53;3.37;;;1.10;;
23800;SDS011;12081;48.614;10.226;2023-03-31T14:21:55;3.13;;;1.30;;
23800;SDS011;12081;48.614;10.226;2023-03-31T14:28:16;3.37;;;0.90;;
23800;SDS011;12081;48.614;10.226;2023-03-31T14:37:25;2.73;;;0.90;;
23800;SDS011;12081;48.614;10.226;2023-03-31T14:40:12;2.70;;;0.70;;
23800;SDS011;12081;48.614;10.226;2023-03-31T14:42:59;4.00;;;0.80;;
23800;SDS011;12081;48.614;10.226;2023-03-31T14:45:44;4.50;;;1.00;;
23800;SDS011;12081;48.614;10.226;2023-03-31T14:48:29;1.70;;;0.40;;
23800;SDS011;12081;48.614;10.226;2023-03-31T14:51:29;3.90;;;0.57;;
23800;SDS011;12081;48.614;10.226;2023-03-31T14:54:17;0.60;;;0.20;;
23800;SDS011;12081;48.614;10.226;2023-03-31T14:57:02;2.20;;;0.40;;
23800;SDS011;12081;48.614;10.226;2023-03-31T14:59:49;0.77;;;0.10;;
23800;SDS011;12081;48.614;10.226;2023-03-31T15:02:36;1.20;;;0.20;;
23800;SDS011;12081;48.614;10.226;2023-03-31T15:05:27;0.53;;;0.10;;
23800;SDS011;12081;48.614;10.226;2023-03-31T15:08:13;0.60;;;0.30;;
23800;SDS011;12081;48.614;10.226;2023-03-31T15:11:11;1.43;;;0.23;;
23800;SDS011;12081;48.614;10.226;2023-03-31T15:13:59;1.33;;;0.53;;
23800;SDS011;12081;48.614;10.226;2023-03-31T15:16:43;1.70;;;0.20;;
23800;SDS011;12081;48.614;10.226;2023-03-31T15:19:29;1.20;;;0.50;;
23800;SDS011;12081;48.614;10.226;2023-03-31T15:22:16;1.43;;;0.43;;
23800;SDS011;12081;48.614;10.226;2023-03-31T15:25:04;1.13;;;0.57;;
23800;SDS011;12081;48.614;10.226;2023-03-31T15:27:50;2.00;;;0.40;;
23800;SDS011;12081;48.614;10.226;2023-03-31T15:30:40;0.80;;;0.40;;
23800;SDS011;12081;48.614;10.226;2023-03-31T15:33:28;1.10;;;0.40;;
23800;SDS011;12081;48.614;10.226;2023-03-31T15:36:15;2.77;;;0.53;;
23800;SDS011;12081;48.614;10.226;2023-03-31T15:38:59;2.77;;;0.77;;
23800;SDS011;12081;48.614;10.226;2023-03-31T15:41:45;1.70;;;0.67;;
23800;SDS011;12081;48.614;10.226;2023-03-31T15:47:23;3.70;;;0.50;;
23800;SDS011;12081;48.614;10.226;2023-03-31T15:50:14;1.67;;;0.43;;
23800;SDS011;12081;48.614;10.226;2023-03-31T15:52:58;1.37;;;0.40;;
23800;SDS011;12081;48.614;10.226;2023-03-31T15:55:43;1.37;;;0.27;;
23800;SDS011;12081;48.614;10.226;2023-03-31T15:58:47;1.30;;;0.50;;
23800;SDS011;12081;48.614;10.226;2023-03-31T16:01:41;2.80;;;0.50;;
23800;SDS011;12081;48.614;10.226;2023-03-31T16:04:28;1.57;;;0.50;;
23800;SDS011;12081;48.614;10.226;2023-03-31T16:13:15;2.60;;;0.40;;
23800;SDS011;12081;48.614;10.226;2023-03-31T16:16:12;0.53;;;0.33;;
23800;SDS011;12081;48.614;10.226;2023-03-31T16:19:07;0.40;;;0.20;;
23800;SDS011;12081;48.614;10.226;2023-03-31T16:21:53;0.83;;;0.40;;
23800;SDS011;12081;48.614;10.226;2023-03-31T16:24:42;3.40;;;0.80;;
23800;SDS011;12081;48.614;10.226;2023-03-31T16:27:27;0.63;;;0.30;;
23800;SDS011;12081;48.614;10.226;2023-03-31T16:30:12;1.40;;;0.53;;
23800;SDS011;12081;48.614;10.226;2023-03-31T16:33:01;2.40;;;0.63;;
23800;SDS011;12081;48.614;10.226;2023-03-31T16:35:50;2.00;;;0.60;;
23800;SDS011;12081;48.614;10.226;2023-03-31T16:38:38;2.63;;;0.73;;
23800;SDS011;12081;48.614;10.226;2023-03-31T16:41:23;0.90;;;0.50;;
23800;SDS011;12081;48.614;10.226;2023-03-31T16:44:09;3.33;;;0.67;;
23800;SDS011;12081;48.614;10.226;2023-03-31T16:46:54;2.27;;;0.40;;
23800;SDS011;12081;48.614;10.226;2023-03-31T16:49:38;1.87;;;0.67;;
23800;SDS011;12081;48.614;10.226;2023-03-31T16:52:23;0.93;;;0.43;;
23800;SDS011;12081;48.614;10.226;2023-03-31T16:55:08;1.33;;;0.47;;
23800;SDS011;12081;48.614;10.226;2023-03-31T16:57:53;1.60;;;0.47;;
23800;SDS011;12081;48.614;10.226;2023-03-31T17:00:37;2.30;;;0.30;;
23800;SDS011;12081;48.614;10.226;2023-03-31T17:03:23;1.43;;;0.60;;
23800;SDS011;12081;48.614;10.226;2023-03-31T17:06:09;2.97;;;1.73;;
23800;SDS011;12081;48.614;10.226;2023-03-31T17:08:54;3.53;;;0.87;;
23800;SDS011;12081;48.614;10.226;2023-03-31T17:11:39;4.17;;;0.60;;
23800;SDS011;12081;48.614;10.226;2023-03-31T17:14:23;2.63;;;0.40;;
23800;SDS011;12081;48.614;10.226;2023-03-31T17:17:07;0.90;;;0.50;;
23800;SDS011;12081;48.614;10.226;2023-03-31T17:19:51;3.20;;;0.50;;
23800;SDS011;12081;48.614;10.226;2023-03-31T17:22:35;4.53;;;0.77;;
23800;SDS011;12081;48.614;10.226;2023-03-31T17:25:19;1.53;;;1.33;;
23800;SDS011;12081;48.614;10.226;2023-03-31T17:28:04;1.87;;;0.40;;
23800;SDS011;12081;48.614;10.226;2023-03-31T17:30:49;2.13;;;0.60;;
23800;SDS011;12081;48.614;10.226;2023-03-31T17:33:33;1.97;;;0.60;;
23800;SDS011;12081;48.614;10.226;2023-03-31T17:36:18;2.43;;;0.60;;
23800;SDS011;12081;48.614;10.226;2023-03-31T17:39:03;2.50;;;0.60;;
23800;SDS011;12081;48.614;10.226;2023-03-31T17:41:47;2.23;;;0.63;;
23800;SDS011;12081;48.614;10.226;2023-03-31T17:44:31;3.57;;;0.50;;
23800;SDS011;12081;48.614;10.226;2023-03-31T17:47:16;2.80;;;0.77;;
23800;SDS011;12081;48.614;10.226;2023-03-31T17:50:00;3.27;;;0.80;;
23800;SDS011;12081;48.614;10.226;2023-03-31T17:52:44;1.37;;;0.50;;
23800;SDS011;12081;48.614;10.226;2023-03-31T17:55:29;3.10;;;0.60;;
23800;SDS011;12081;48.614;10.226;2023-03-31T17:58:13;1.10;;;0.60;;
23800;SDS011;12081;48.614;10.226;2023-03-31T18:00:58;3.30;;;0.60;;
23800;SDS011;12081;48.614;10.226;2023-03-31T18:03:43;8.77;;;4.27;;
23800;SDS011;12081;48.614;10.226;2023-03-31T18:06:28;4.97;;;0.70;;
23800;SDS011;12081;48.614;10.226;2023-03-31T18:09:13;2.40;;;0.63;;
23800;SDS011;12081;48.614;10.226;2023-03-31T18:11:57;2.83;;;1.00;;
23800;SDS011;12081;48.614;10.226;2023-03-31T18:14:42;1.97;;;1.03;;
23800;SDS011;12081;48.614;10.226;2023-03-31T18:17:27;1.47;;;1.17;;
23800;SDS011;12081;48.614;10.226;2023-03-31T18:20:11;2.10;;;1.00;;
23800;SDS011;12081;48.614;10.226;2023-03-31T18:22:55;0.67;;;0.37;;
23800;SDS011;12081;48.614;10.226;2023-03-31T18:25:42;4.27;;;0.70;;
23800;SDS011;12081;48.614;10.226;2023-03-31T18:28:28;3.53;;;1.30;;
23800;SDS011;12081;48.614;10.226;2023-03-31T18:31:13;1.60;;;0.73;;
23800;SDS011;12081;48.614;10.226;2023-03-31T18:33:57;2.93;;;0.80;;
23800;SDS011;12081;48.614;10.226;2023-03-31T18:36:41;0.77;;;0.50;;
23800;SDS011;12081;48.614;10.226;2023-03-31T18:39:27;1.13;;;0.50;;
23800;SDS011;12081;48.614;10.226;2023-03-31T18:42:11;1.57;;;0.47;;
23800;SDS011;12081;48.614;10.226;2023-03-31T18:44:55;2.30;;;0.93;;
23800;SDS011;12081;48.614;10.226;2023-03-31T18:47:39;2.60;;;0.77;;
23800;SDS011;12081;48.614;10.226;2023-03-31T18:50:24;2.53;;;0.80;;
23800;SDS011;12081;48.614;10.226;2023-03-31T18:53:08;2.47;;;0.70;;
23800;SDS011;12081;48.614;10.226;2023-03-31T18:55:56;2.33;;;0.70;;
23800;SDS011;12081;48.614;10.226;2023-03-31T18:58:41;2.53;;;0.70;;